PWSweather.com
Personal Weather Stations
Station Observations
N3SME
Betz Creek, Wilmington Island, Savannah, GA 31410

Betz Creek, Wilmington IslandSavannah, GA 31410

Lat: 32.023021, Lon: -80.959452

Elevation: 15

Station Type: Ambient

Latest ConditionsUpdated 1:15:02 PM EDT Sunday, May 1, 2016
Currently Today's Max Today's Min Today's Average
Temperature 84.1°F28.9°C 84.1°F28.9°C 73.7°F23.2°C 76.4°F24.7°C
Dew Point 48.5°F9.2°C 66.9°F19.4°C 48.2°F9.0°C 61.5°F16.4°C
Winds 5.1 mph SW8.2 kmh SW 6.9 mph SW11.1 kmh SW - 1.7 mph 2.7 kmh
Wind Gusts 28.0 mph45.1 kmh 28.0 mph45.1 kmh - -
Humidity 29% 77% 29% 62%
Pressure 30.03 in1016.9 mb 30.05 in1017.6 mb 29.97 in1014.9 mb -
Hour Temp Dew Point Humidity Winds Wind Gusts Pressure Precip Precip Rate Daily Precip Total
01:15 PM 84.1°F28.9°C 48.5°F9.2°C 29% 5.1 mph SW8.2 kmh SW 28.0 mph45.1 kmh 30.03 in1016.9 mb 0.00 in0.0 mm 0.00 in0.0 mm 0.00 in0.0 mm
01:00 PM 83.2°F28.4°C 49.5°F9.7°C 31% 3.6 mph SW5.8 kmh SW 22.8 mph36.7 kmh 30.04 in1017.3 mb 0.00 in0.0 mm 0.00 in0.0 mm 0.00 in0.0 mm
12:45 PM 81.4°F27.4°C 50.4°F10.2°C 34% 1.8 mph SW2.9 kmh SW 17.4 mph28.0 kmh 30.04 in1017.3 mb 0.00 in0.0 mm 0.00 in0.0 mm 0.00 in0.0 mm
12:30 PM 81.8°F27.7°C 48.2°F9.0°C 31% 6.9 mph SW11.1 kmh SW 21.0 mph33.8 kmh 30.04 in1017.3 mb 0.00 in0.0 mm 0.00 in0.0 mm 0.00 in0.0 mm
12:15 PM 83.4°F28.6°C 49.6°F9.8°C 31% 1.8 mph WSW2.9 kmh WSW 15.7 mph25.3 kmh 30.05 in1017.6 mb 0.00 in0.0 mm 0.00 in0.0 mm 0.00 in0.0 mm
12:00 PM 82.7°F28.2°C 52.3°F11.3°C 35% 5.1 mph SSW8.2 kmh SSW 15.7 mph25.3 kmh 30.05 in1017.6 mb 0.00 in0.0 mm 0.00 in0.0 mm 0.00 in0.0 mm
11:45 AM 80.5°F26.9°C 54.0°F12.2°C 40% 6.9 mph SSW11.1 kmh SSW 19.2 mph30.9 kmh 30.05 in1017.6 mb 0.00 in0.0 mm 0.00 in0.0 mm 0.00 in0.0 mm
11:30 AM 81.0°F27.2°C 53.8°F12.1°C 39% 3.6 mph WSW5.8 kmh WSW 22.8 mph36.7 kmh 30.05 in1017.6 mb 0.00 in0.0 mm 0.00 in0.0 mm 0.00 in0.0 mm
11:15 AM 80.1°F26.7°C 56.3°F13.5°C 44% Calm Calm 24.6 mph39.6 kmh 30.05 in1017.6 mb 0.00 in0.0 mm 0.00 in0.0 mm 0.00 in0.0 mm
11:00 AM 80.1°F26.7°C 56.3°F13.5°C 44% 6.9 mph SW11.1 kmh SW 17.4 mph28.0 kmh 30.05 in1017.6 mb 0.00 in0.0 mm 0.00 in0.0 mm 0.00 in0.0 mm
10:45 AM 80.5°F26.9°C 56.0°F13.3°C 43% 1.8 mph SW2.9 kmh SW 12.3 mph19.8 kmh 30.05 in1017.6 mb 0.00 in0.0 mm 0.00 in0.0 mm 0.00 in0.0 mm
10:30 AM 80.1°F26.7°C 58.1°F14.5°C 47% 3.6 mph WSW5.8 kmh WSW 19.2 mph30.9 kmh 30.04 in1017.3 mb 0.00 in0.0 mm 0.00 in0.0 mm 0.00 in0.0 mm
10:15 AM 79.1°F26.2°C 58.9°F14.9°C 50% 1.8 mph SW2.9 kmh SW 26.2 mph42.2 kmh 30.04 in1017.3 mb 0.00 in0.0 mm 0.00 in0.0 mm 0.00 in0.0 mm
10:00 AM 78.5°F25.8°C 59.5°F15.3°C 52% Calm Calm 19.2 mph30.9 kmh 30.04 in1017.3 mb 0.00 in0.0 mm 0.00 in0.0 mm 0.00 in0.0 mm
09:45 AM 77.8°F25.4°C 60.9°F16.1°C 56% 6.9 mph WSW11.1 kmh WSW 21.0 mph33.8 kmh 30.04 in1017.3 mb 0.00 in0.0 mm 0.00 in0.0 mm 0.00 in0.0 mm
09:30 AM 77.3°F25.2°C 61.9°F16.6°C 59% 3.6 mph SW5.8 kmh SW 15.7 mph25.3 kmh 30.03 in1016.9 mb 0.00 in0.0 mm 0.00 in0.0 mm 0.00 in0.0 mm
09:15 AM 76.9°F24.9°C 64.7°F18.2°C 66% 6.9 mph SW11.1 kmh SW 19.2 mph30.9 kmh 30.03 in1016.9 mb 0.00 in0.0 mm 0.00 in0.0 mm 0.00 in0.0 mm
09:00 AM 75.8°F24.3°C 65.8°F18.8°C 71% Calm Calm 6.9 mph11.1 kmh 30.03 in1016.9 mb 0.00 in0.0 mm 0.00 in0.0 mm 0.00 in0.0 mm
08:45 AM 75.8°F24.3°C 65.8°F18.8°C 71% Calm Calm 5.1 mph8.2 kmh 30.03 in1016.9 mb 0.00 in0.0 mm 0.00 in0.0 mm 0.00 in0.0 mm
08:30 AM 75.8°F24.3°C 65.8°F18.8°C 71% 1.8 mph SW2.9 kmh SW 15.7 mph25.3 kmh 30.02 in1016.6 mb 0.00 in0.0 mm 0.00 in0.0 mm 0.00 in0.0 mm
08:15 AM 75.8°F24.3°C 66.2°F19.0°C 72% Calm Calm 12.3 mph19.8 kmh 30.01 in1016.3 mb 0.00 in0.0 mm 0.00 in0.0 mm 0.00 in0.0 mm
08:00 AM 75.6°F24.2°C 66.8°F19.3°C 74% Calm Calm 6.9 mph11.1 kmh 30.01 in1016.3 mb 0.00 in0.0 mm 0.00 in0.0 mm 0.00 in0.0 mm
07:45 AM 74.9°F23.8°C 66.9°F19.4°C 76% Calm Calm 12.3 mph19.8 kmh 30.01 in1016.3 mb 0.00 in0.0 mm 0.00 in0.0 mm 0.00 in0.0 mm
07:30 AM 74.0°F23.3°C 66.4°F19.1°C 77% 1.8 mph NE2.9 kmh NE 8.7 mph14.0 kmh 30.00 in1015.9 mb 0.00 in0.0 mm 0.00 in0.0 mm 0.00 in0.0 mm
07:15 AM 73.7°F23.2°C 65.7°F18.7°C 76% Calm Calm 6.9 mph11.1 kmh 30.01 in1016.3 mb 0.00 in0.0 mm 0.00 in0.0 mm 0.00 in0.0 mm
07:00 AM 73.7°F23.2°C 65.3°F18.5°C 75% Calm Calm 8.7 mph14.0 kmh 30.00 in1015.9 mb 0.00 in0.0 mm 0.00 in0.0 mm 0.00 in0.0 mm
06:45 AM 73.8°F23.2°C 65.1°F18.4°C 74% 1.8 mph NE2.9 kmh NE 12.3 mph19.8 kmh 29.99 in1015.6 mb 0.00 in0.0 mm 0.00 in0.0 mm 0.00 in0.0 mm
06:30 AM 74.0°F23.3°C 65.2°F18.4°C 74% 1.8 mph NNE2.9 kmh NNE 8.7 mph14.0 kmh 30.00 in1015.9 mb 0.00 in0.0 mm 0.00 in0.0 mm 0.00 in0.0 mm
06:15 AM 74.0°F23.3°C 65.2°F18.4°C 74% 1.8 mph NW2.9 kmh NW 8.7 mph14.0 kmh 30.00 in1015.9 mb 0.00 in0.0 mm 0.00 in0.0 mm 0.00 in0.0 mm
06:00 AM 73.8°F23.2°C 64.7°F18.2°C 73% Calm Calm 14.1 mph22.7 kmh 30.00 in1015.9 mb 0.00 in0.0 mm 0.00 in0.0 mm 0.00 in0.0 mm
05:45 AM 74.0°F23.3°C 64.5°F18.1°C 72% 1.8 mph W2.9 kmh W 10.5 mph16.9 kmh 29.98 in1015.2 mb 0.00 in0.0 mm 0.00 in0.0 mm 0.00 in0.0 mm
05:30 AM 74.2°F23.4°C 64.6°F18.1°C 72% 1.8 mph ESE2.9 kmh ESE 12.3 mph19.8 kmh 29.98 in1015.2 mb 0.00 in0.0 mm 0.00 in0.0 mm 0.00 in0.0 mm
05:15 AM 74.4°F23.6°C 64.8°F18.2°C 72% Calm Calm 10.5 mph16.9 kmh 29.97 in1014.9 mb 0.00 in0.0 mm 0.00 in0.0 mm 0.00 in0.0 mm
05:00 AM 74.4°F23.6°C 64.8°F18.2°C 72% Calm Calm 10.5 mph16.9 kmh 29.98 in1015.2 mb 0.00 in0.0 mm 0.00 in0.0 mm 0.00 in0.0 mm
04:45 AM 74.6°F23.7°C 65.4°F18.6°C 73% 1.8 mph S2.9 kmh S 12.3 mph19.8 kmh 29.98 in1015.2 mb 0.00 in0.0 mm 0.00 in0.0 mm 0.00 in0.0 mm
04:30 AM 74.6°F23.7°C 65.0°F18.3°C 72% 1.8 mph S2.9 kmh S 14.1 mph22.7 kmh 29.98 in1015.2 mb 0.00 in0.0 mm 0.00 in0.0 mm 0.00 in0.0 mm
04:15 AM 74.4°F23.6°C 64.8°F18.2°C 72% Calm Calm 8.7 mph14.0 kmh 29.99 in1015.6 mb 0.00 in0.0 mm 0.00 in0.0 mm 0.00 in0.0 mm
04:00 AM 74.4°F23.6°C 64.4°F18.0°C 71% Calm Calm 6.9 mph11.1 kmh 29.99 in1015.6 mb 0.00 in0.0 mm 0.00 in0.0 mm 0.00 in0.0 mm
03:45 AM 74.4°F23.6°C 64.0°F17.8°C 70% Calm Calm 6.9 mph11.1 kmh 29.99 in1015.6 mb 0.00 in0.0 mm 0.00 in0.0 mm 0.00 in0.0 mm
03:30 AM 74.4°F23.6°C 63.6°F17.6°C 69% 1.8 mph SW2.9 kmh SW 8.7 mph14.0 kmh 29.99 in1015.6 mb 0.00 in0.0 mm 0.00 in0.0 mm 0.00 in0.0 mm
03:15 AM 74.6°F23.7°C 63.8°F17.7°C 69% Calm Calm 8.7 mph14.0 kmh 29.99 in1015.6 mb 0.00 in0.0 mm 0.00 in0.0 mm 0.00 in0.0 mm
03:00 AM 74.7°F23.7°C 63.9°F17.7°C 69% Calm Calm 10.5 mph16.9 kmh 30.00 in1015.9 mb 0.00 in0.0 mm 0.00 in0.0 mm 0.00 in0.0 mm
02:45 AM 74.7°F23.7°C 63.9°F17.7°C 69% Calm Calm 10.5 mph16.9 kmh 30.00 in1015.9 mb 0.00 in0.0 mm 0.00 in0.0 mm 0.00 in0.0 mm
02:30 AM 74.7°F23.7°C 63.5°F17.5°C 68% Calm Calm 17.4 mph28.0 kmh 30.00 in1015.9 mb 0.00 in0.0 mm 0.00 in0.0 mm 0.00 in0.0 mm
02:15 AM 74.7°F23.7°C 63.5°F17.5°C 68% Calm Calm 8.7 mph14.0 kmh 30.00 in1015.9 mb 0.00 in0.0 mm 0.00 in0.0 mm 0.00 in0.0 mm
02:00 AM 74.7°F23.7°C 63.1°F17.3°C 67% 1.8 mph SE2.9 kmh SE 6.9 mph11.1 kmh 30.01 in1016.3 mb 0.00 in0.0 mm 0.00 in0.0 mm 0.00 in0.0 mm
01:45 AM 74.7°F23.7°C 62.7°F17.1°C 66% 1.8 mph SE2.9 kmh SE 12.3 mph19.8 kmh 30.01 in1016.3 mb 0.00 in0.0 mm 0.00 in0.0 mm 0.00 in0.0 mm
01:30 AM 74.6°F23.7°C 62.5°F16.9°C 66% Calm Calm 8.7 mph14.0 kmh 30.01 in1016.3 mb 0.00 in0.0 mm 0.00 in0.0 mm 0.00 in0.0 mm
01:15 AM 74.6°F23.7°C 62.5°F16.9°C 66% Calm Calm 14.1 mph22.7 kmh 30.01 in1016.3 mb 0.00 in0.0 mm 0.00 in0.0 mm 0.00 in0.0 mm
01:00 AM 74.6°F23.7°C 62.5°F16.9°C 66% 1.8 mph ESE2.9 kmh ESE 14.1 mph22.7 kmh 30.01 in1016.3 mb 0.00 in0.0 mm 0.00 in0.0 mm 0.00 in0.0 mm
12:45 AM 74.6°F23.7°C 62.5°F16.9°C 66% Calm Calm 14.1 mph22.7 kmh 30.02 in1016.6 mb 0.00 in0.0 mm 0.00 in0.0 mm 0.00 in0.0 mm
12:30 AM 74.4°F23.6°C 61.9°F16.6°C 65% 1.8 mph E2.9 kmh E 10.5 mph16.9 kmh 30.02 in1016.6 mb 0.00 in0.0 mm 0.00 in0.0 mm 0.00 in0.0 mm
12:15 AM 74.4°F23.6°C 61.9°F16.6°C 65% Calm Calm 15.7 mph25.3 kmh 30.02 in1016.6 mb 0.00 in0.0 mm 0.00 in0.0 mm 0.00 in0.0 mm
12:00 AM 74.4°F23.6°C 61.4°F16.3°C 64% 1.8 mph E2.9 kmh E 14.1 mph22.7 kmh 30.01 in1016.3 mb 0.00 in0.0 mm 0.00 in0.0 mm 0.00 in0.0 mm